sensor_id;sensor_type;location;lat;lon;timestamp;P1;durP1;ratioP1;P2;durP2;ratioP2
52962;SDS011;38827;53.024;6.596;2023-07-20T01:32:27;4.15;;;3.72;;
52962;SDS011;38827;53.024;6.596;2023-07-20T01:35:46;4.07;;;3.72;;
52962;SDS011;38827;53.024;6.596;2023-07-20T01:41:42;4.63;;;4.05;;
52962;SDS011;38827;53.024;6.596;2023-07-20T02:53:21;5.40;;;4.80;;
52962;SDS011;38827;53.024;6.596;2023-07-20T03:02:18;6.20;;;5.47;;
52962;SDS011;38827;53.024;6.596;2023-07-20T03:04:44;5.85;;;5.25;;
52962;SDS011;38827;53.024;6.596;2023-07-20T03:34:54;5.93;;;4.70;;
52962;SDS011;38827;53.024;6.596;2023-07-20T03:44:48;7.15;;;4.82;;
52962;SDS011;38827;53.024;6.596;2023-07-20T03:50:04;5.32;;;4.82;;
52962;SDS011;38827;53.024;6.596;2023-07-20T03:52:37;5.97;;;4.57;;
52962;SDS011;38827;53.024;6.596;2023-07-20T04:50:07;6.40;;;3.30;;
52962;SDS011;38827;53.024;6.596;2023-07-20T05:08:28;4.47;;;2.65;;
52962;SDS011;38827;53.024;6.596;2023-07-20T05:38:19;2.90;;;1.98;;
52962;SDS011;38827;53.024;6.596;2023-07-20T06:49:59;4.13;;;1.27;;
52962;SDS011;38827;53.024;6.596;2023-07-20T07:49:11;2.35;;;0.93;;
52962;SDS011;38827;53.024;6.596;2023-07-20T07:55:14;4.05;;;1.15;;
52962;SDS011;38827;53.024;6.596;2023-07-20T08:12:55;2.80;;;0.98;;
52962;SDS011;38827;53.024;6.596;2023-07-20T08:28:02;3.88;;;1.30;;
52962;SDS011;38827;53.024;6.596;2023-07-20T08:30:41;4.38;;;1.00;;
52962;SDS011;38827;53.024;6.596;2023-07-20T08:33:34;2.33;;;1.00;;
52962;SDS011;38827;53.024;6.596;2023-07-20T09:24:39;7.28;;;1.65;;
52962;SDS011;38827;53.024;6.596;2023-07-20T09:49:08;3.53;;;1.50;;
52962;SDS011;38827;53.024;6.596;2023-07-20T09:51:44;3.92;;;1.60;;
52962;SDS011;38827;53.024;6.596;2023-07-20T09:54:10;4.70;;;1.48;;
52962;SDS011;38827;53.024;6.596;2023-07-20T09:56:41;2.72;;;1.45;;
52962;SDS011;38827;53.024;6.596;2023-07-20T10:05:39;3.22;;;1.23;;
52962;SDS011;38827;53.024;6.596;2023-07-20T10:18:46;2.20;;;0.98;;
52962;SDS011;38827;53.024;6.596;2023-07-20T10:28:58;2.17;;;0.80;;
52962;SDS011;38827;53.024;6.596;2023-07-20T10:38:38;4.43;;;1.30;;
52962;SDS011;38827;53.024;6.596;2023-07-20T10:43:42;4.05;;;1.35;;
52962;SDS011;38827;53.024;6.596;2023-07-20T10:46:13;2.97;;;1.52;;
52962;SDS011;38827;53.024;6.596;2023-07-20T10:51:24;2.33;;;1.13;;
52962;SDS011;38827;53.024;6.596;2023-07-20T10:53:50;3.88;;;1.20;;
52962;SDS011;38827;53.024;6.596;2023-07-20T10:56:22;3.30;;;1.00;;
52962;SDS011;38827;53.024;6.596;2023-07-20T10:58:54;1.73;;;0.90;;
52962;SDS011;38827;53.024;6.596;2023-07-20T11:01:29;6.38;;;1.48;;
52962;SDS011;38827;53.024;6.596;2023-07-20T11:03:58;2.72;;;0.90;;
52962;SDS011;38827;53.024;6.596;2023-07-20T11:13:55;1.95;;;0.85;;
52962;SDS011;38827;53.024;6.596;2023-07-20T11:16:39;2.88;;;0.70;;
52962;SDS011;38827;53.024;6.596;2023-07-20T11:21:43;2.38;;;0.80;;
52962;SDS011;38827;53.024;6.596;2023-07-20T11:24:32;1.90;;;0.73;;
52962;SDS011;38827;53.024;6.596;2023-07-20T11:27:11;3.00;;;0.80;;
52962;SDS011;38827;53.024;6.596;2023-07-20T11:29:52;5.07;;;0.93;;
52962;SDS011;38827;53.024;6.596;2023-07-20T11:42:22;2.25;;;0.88;;
52962;SDS011;38827;53.024;6.596;2023-07-20T11:48:35;2.70;;;1.00;;
52962;SDS011;38827;53.024;6.596;2023-07-20T11:51:04;2.88;;;0.88;;
52962;SDS011;38827;53.024;6.596;2023-07-20T11:53:30;1.63;;;0.80;;
52962;SDS011;38827;53.024;6.596;2023-07-20T11:55:58;2.25;;;0.63;;
52962;SDS011;38827;53.024;6.596;2023-07-20T11:58:24;1.23;;;0.73;;
52962;SDS011;38827;53.024;6.596;2023-07-20T12:00:50;2.20;;;0.77;;
52962;SDS011;38827;53.024;6.596;2023-07-20T12:03:15;2.57;;;0.80;;
52962;SDS011;38827;53.024;6.596;2023-07-20T12:05:41;0.97;;;0.67;;
52962;SDS011;38827;53.024;6.596;2023-07-20T12:08:07;1.33;;;0.80;;
52962;SDS011;38827;53.024;6.596;2023-07-20T12:10:33;1.83;;;1.00;;
52962;SDS011;38827;53.024;6.596;2023-07-20T12:13:02;5.20;;;0.93;;
52962;SDS011;38827;53.024;6.596;2023-07-20T12:15:29;2.00;;;1.00;;
52962;SDS011;38827;53.024;6.596;2023-07-20T12:17:56;3.95;;;1.00;;
52962;SDS011;38827;53.024;6.596;2023-07-20T12:20:30;2.33;;;1.13;;
52962;SDS011;38827;53.024;6.596;2023-07-20T12:25:43;2.97;;;1.25;;
52962;SDS011;38827;53.024;6.596;2023-07-20T12:28:17;3.60;;;1.20;;
52962;SDS011;38827;53.024;6.596;2023-07-20T12:30:44;1.88;;;0.88;;
52962;SDS011;38827;53.024;6.596;2023-07-20T12:33:11;3.53;;;1.27;;
52962;SDS011;38827;53.024;6.596;2023-07-20T12:35:40;3.22;;;1.00;;
52962;SDS011;38827;53.024;6.596;2023-07-20T12:43:17;2.70;;;0.93;;
52962;SDS011;38827;53.024;6.596;2023-07-20T12:45:42;3.03;;;1.00;;
52962;SDS011;38827;53.024;6.596;2023-07-20T12:48:08;3.50;;;0.97;;
52962;SDS011;38827;53.024;6.596;2023-07-20T12:50:34;3.75;;;1.20;;
52962;SDS011;38827;53.024;6.596;2023-07-20T12:53:01;2.60;;;1.00;;
52962;SDS011;38827;53.024;6.596;2023-07-20T12:55:28;2.80;;;1.10;;
52962;SDS011;38827;53.024;6.596;2023-07-20T12:57:54;1.27;;;0.90;;
52962;SDS011;38827;53.024;6.596;2023-07-20T13:00:20;2.37;;;1.00;;
52962;SDS011;38827;53.024;6.596;2023-07-20T13:02:48;1.92;;;0.98;;
52962;SDS011;38827;53.024;6.596;2023-07-20T13:05:14;2.75;;;1.10;;
52962;SDS011;38827;53.024;6.596;2023-07-20T13:07:40;4.23;;;1.07;;
52962;SDS011;38827;53.024;6.596;2023-07-20T13:10:06;2.17;;;1.17;;
52962;SDS011;38827;53.024;6.596;2023-07-20T13:12:33;2.25;;;1.10;;
52962;SDS011;38827;53.024;6.596;2023-07-20T13:15:04;2.42;;;1.17;;
52962;SDS011;38827;53.024;6.596;2023-07-20T13:17:32;2.55;;;1.20;;
52962;SDS011;38827;53.024;6.596;2023-07-20T13:22:24;2.43;;;1.10;;
52962;SDS011;38827;53.024;6.596;2023-07-20T13:24:49;2.50;;;0.90;;
52962;SDS011;38827;53.024;6.596;2023-07-20T13:27:16;4.00;;;1.20;;
52962;SDS011;38827;53.024;6.596;2023-07-20T13:29:43;5.13;;;1.23;;
52962;SDS011;38827;53.024;6.596;2023-07-20T13:32:09;1.52;;;0.80;;
52962;SDS011;38827;53.024;6.596;2023-07-20T13:34:35;3.60;;;1.07;;
52962;SDS011;38827;53.024;6.596;2023-07-20T13:37:01;3.10;;;0.80;;
52962;SDS011;38827;53.024;6.596;2023-07-20T13:39:27;2.35;;;1.02;;
52962;SDS011;38827;53.024;6.596;2023-07-20T13:41:53;1.60;;;0.90;;
52962;SDS011;38827;53.024;6.596;2023-07-20T13:44:19;2.63;;;0.87;;
52962;SDS011;38827;53.024;6.596;2023-07-20T13:46:46;5.85;;;1.20;;
52962;SDS011;38827;53.024;6.596;2023-07-20T13:51:39;3.00;;;0.88;;
52962;SDS011;38827;53.024;6.596;2023-07-20T14:11:16;4.57;;;1.13;;
52962;SDS011;38827;53.024;6.596;2023-07-20T14:16:09;3.73;;;1.03;;
52962;SDS011;38827;53.024;6.596;2023-07-20T14:18:37;5.90;;;1.50;;
52962;SDS011;38827;53.024;6.596;2023-07-20T14:21:07;2.55;;;1.02;;
52962;SDS011;38827;53.024;6.596;2023-07-20T14:23:33;4.07;;;1.20;;
52962;SDS011;38827;53.024;6.596;2023-07-20T14:25:59;3.70;;;1.20;;
52962;SDS011;38827;53.024;6.596;2023-07-20T14:28:25;2.27;;;1.20;;
52962;SDS011;38827;53.024;6.596;2023-07-20T14:30:51;1.73;;;1.07;;
52962;SDS011;38827;53.024;6.596;2023-07-20T14:33:16;1.65;;;0.93;;
52962;SDS011;38827;53.024;6.596;2023-07-20T14:35:42;2.13;;;1.17;;
52962;SDS011;38827;53.024;6.596;2023-07-20T14:38:09;3.93;;;1.20;;
52962;SDS011;38827;53.024;6.596;2023-07-20T14:40:35;3.22;;;1.40;;
52962;SDS011;38827;53.024;6.596;2023-07-20T14:43:01;1.92;;;1.10;;
52962;SDS011;38827;53.024;6.596;2023-07-20T14:45:27;3.83;;;1.20;;
52962;SDS011;38827;53.024;6.596;2023-07-20T14:47:52;2.33;;;1.20;;
52962;SDS011;38827;53.024;6.596;2023-07-20T14:50:19;2.77;;;1.20;;
52962;SDS011;38827;53.024;6.596;2023-07-20T15:21:56;2.50;;;0.90;;
52962;SDS011;38827;53.024;6.596;2023-07-20T15:24:23;3.77;;;1.47;;
52962;SDS011;38827;53.024;6.596;2023-07-20T15:26:49;4.90;;;1.45;;
52962;SDS011;38827;53.024;6.596;2023-07-20T15:29:15;2.83;;;0.97;;
52962;SDS011;38827;53.024;6.596;2023-07-20T15:31:42;3.70;;;1.40;;
52962;SDS011;38827;53.024;6.596;2023-07-20T15:36:53;3.80;;;1.10;;
52962;SDS011;38827;53.024;6.596;2023-07-20T15:39:20;3.58;;;1.20;;
52962;SDS011;38827;53.024;6.596;2023-07-20T15:41:59;3.20;;;1.10;;
52962;SDS011;38827;53.024;6.596;2023-07-20T15:58:56;3.58;;;1.30;;
52962;SDS011;38827;53.024;6.596;2023-07-20T16:20:53;2.80;;;1.23;;
52962;SDS011;38827;53.024;6.596;2023-07-20T16:41:47;2.47;;;1.10;;
52962;SDS011;38827;53.024;6.596;2023-07-20T16:44:34;2.70;;;1.25;;
52962;SDS011;38827;53.024;6.596;2023-07-20T16:47:37;4.55;;;1.40;;
52962;SDS011;38827;53.024;6.596;2023-07-20T16:50:02;4.30;;;1.40;;
52962;SDS011;38827;53.024;6.596;2023-07-20T16:52:54;2.03;;;1.38;;
52962;SDS011;38827;53.024;6.596;2023-07-20T16:58:05;2.80;;;1.70;;
52962;SDS011;38827;53.024;6.596;2023-07-20T17:00:31;2.53;;;1.30;;
52962;SDS011;38827;53.024;6.596;2023-07-20T17:02:58;3.67;;;1.40;;
52962;SDS011;38827;53.024;6.596;2023-07-20T17:05:27;2.50;;;1.30;;
52962;SDS011;38827;53.024;6.596;2023-07-20T17:10:21;3.90;;;1.40;;
52962;SDS011;38827;53.024;6.596;2023-07-20T17:12:48;4.47;;;1.40;;
52962;SDS011;38827;53.024;6.596;2023-07-20T17:15:14;3.47;;;1.53;;
52962;SDS011;38827;53.024;6.596;2023-07-20T17:17:40;5.68;;;1.20;;
52962;SDS011;38827;53.024;6.596;2023-07-20T17:20:07;2.28;;;1.20;;
52962;SDS011;38827;53.024;6.596;2023-07-20T17:22:37;3.38;;;1.25;;
52962;SDS011;38827;53.024;6.596;2023-07-20T17:25:05;2.95;;;1.10;;
52962;SDS011;38827;53.024;6.596;2023-07-20T17:27:31;2.65;;;1.27;;
52962;SDS011;38827;53.024;6.596;2023-07-20T17:29:57;3.50;;;1.58;;
52962;SDS011;38827;53.024;6.596;2023-07-20T17:32:25;3.75;;;1.30;;
52962;SDS011;38827;53.024;6.596;2023-07-20T17:34:51;2.63;;;1.20;;
52962;SDS011;38827;53.024;6.596;2023-07-20T17:37:17;3.67;;;1.00;;
52962;SDS011;38827;53.024;6.596;2023-07-20T17:39:45;2.95;;;0.98;;
52962;SDS011;38827;53.024;6.596;2023-07-20T17:42:11;3.07;;;1.10;;
52962;SDS011;38827;53.024;6.596;2023-07-20T17:45:03;2.45;;;1.05;;
52962;SDS011;38827;53.024;6.596;2023-07-20T17:47:29;3.55;;;1.20;;
52962;SDS011;38827;53.024;6.596;2023-07-20T17:49:55;2.85;;;0.95;;
52962;SDS011;38827;53.024;6.596;2023-07-20T17:52:22;3.90;;;1.02;;
52962;SDS011;38827;53.024;6.596;2023-07-20T17:54:55;3.90;;;1.08;;
52962;SDS011;38827;53.024;6.596;2023-07-20T17:57:22;4.10;;;1.27;;
52962;SDS011;38827;53.024;6.596;2023-07-20T17:59:50;1.27;;;1.00;;
52962;SDS011;38827;53.024;6.596;2023-07-20T18:02:20;2.25;;;0.90;;
52962;SDS011;38827;53.024;6.596;2023-07-20T18:04:50;1.88;;;1.10;;
52962;SDS011;38827;53.024;6.596;2023-07-20T18:07:17;3.38;;;1.15;;
52962;SDS011;38827;53.024;6.596;2023-07-20T18:09:43;2.13;;;1.00;;
52962;SDS011;38827;53.024;6.596;2023-07-20T18:12:09;2.47;;;1.17;;
52962;SDS011;38827;53.024;6.596;2023-07-20T18:14:36;3.70;;;1.10;;
52962;SDS011;38827;53.024;6.596;2023-07-20T18:17:05;2.20;;;0.80;;
52962;SDS011;38827;53.024;6.596;2023-07-20T18:19:34;2.55;;;1.00;;
52962;SDS011;38827;53.024;6.596;2023-07-20T18:22:02;3.88;;;1.13;;
52962;SDS011;38827;53.024;6.596;2023-07-20T18:24:29;3.22;;;1.35;;
52962;SDS011;38827;53.024;6.596;2023-07-20T18:29:31;1.60;;;1.00;;
52962;SDS011;38827;53.024;6.596;2023-07-20T18:34:50;3.35;;;1.17;;
52962;SDS011;38827;53.024;6.596;2023-07-20T18:37:31;2.60;;;1.20;;
52962;SDS011;38827;53.024;6.596;2023-07-20T18:49:10;1.75;;;1.10;;
52962;SDS011;38827;53.024;6.596;2023-07-20T18:51:36;3.83;;;1.47;;
52962;SDS011;38827;53.024;6.596;2023-07-20T18:54:01;3.50;;;2.00;;
52962;SDS011;38827;53.024;6.596;2023-07-20T18:56:28;2.67;;;1.30;;
52962;SDS011;38827;53.024;6.596;2023-07-20T19:01:20;3.85;;;2.00;;
52962;SDS011;38827;53.024;6.596;2023-07-20T19:03:47;9.00;;;4.95;;
52962;SDS011;38827;53.024;6.596;2023-07-20T19:06:13;16.92;;;11.07;;
52962;SDS011;38827;53.024;6.596;2023-07-20T19:08:39;9.20;;;5.40;;
52962;SDS011;38827;53.024;6.596;2023-07-20T19:11:07;7.35;;;3.42;;
52962;SDS011;38827;53.024;6.596;2023-07-20T19:13:37;7.50;;;4.10;;
52962;SDS011;38827;53.024;6.596;2023-07-20T19:16:12;6.45;;;2.65;;
52962;SDS011;38827;53.024;6.596;2023-07-20T19:18:38;2.92;;;1.67;;
52962;SDS011;38827;53.024;6.596;2023-07-20T19:21:05;3.42;;;1.20;;
52962;SDS011;38827;53.024;6.596;2023-07-20T19:23:33;4.90;;;1.08;;
52962;SDS011;38827;53.024;6.596;2023-07-20T19:26:06;6.05;;;1.48;;
52962;SDS011;38827;53.024;6.596;2023-07-20T19:28:33;4.30;;;1.20;;
52962;SDS011;38827;53.024;6.596;2023-07-20T19:31:05;3.47;;;1.20;;
52962;SDS011;38827;53.024;6.596;2023-07-20T19:33:36;2.53;;;1.40;;
52962;SDS011;38827;53.024;6.596;2023-07-20T19:43:52;4.95;;;1.55;;
52962;SDS011;38827;53.024;6.596;2023-07-20T20:04:07;3.28;;;1.52;;
52962;SDS011;38827;53.024;6.596;2023-07-20T20:07:12;6.20;;;1.98;;
52962;SDS011;38827;53.024;6.596;2023-07-20T20:16:20;3.88;;;1.55;;
52962;SDS011;38827;53.024;6.596;2023-07-20T20:22:26;5.22;;;1.40;;
52962;SDS011;38827;53.024;6.596;2023-07-20T20:27:51;4.60;;;1.45;;
52962;SDS011;38827;53.024;6.596;2023-07-20T20:34:02;4.53;;;1.30;;
52962;SDS011;38827;53.024;6.596;2023-07-20T20:36:46;1.83;;;1.20;;
52962;SDS011;38827;53.024;6.596;2023-07-20T20:39:13;4.37;;;1.40;;
52962;SDS011;38827;53.024;6.596;2023-07-20T20:41:39;4.20;;;1.20;;
52962;SDS011;38827;53.024;6.596;2023-07-20T20:44:11;3.95;;;1.60;;
52962;SDS011;38827;53.024;6.596;2023-07-20T20:46:44;3.47;;;1.40;;
52962;SDS011;38827;53.024;6.596;2023-07-20T20:49:10;3.70;;;1.30;;
52962;SDS011;38827;53.024;6.596;2023-07-20T20:51:36;1.98;;;1.23;;
52962;SDS011;38827;53.024;6.596;2023-07-20T20:54:01;3.42;;;1.50;;
52962;SDS011;38827;53.024;6.596;2023-07-20T20:56:29;4.18;;;1.60;;
52962;SDS011;38827;53.024;6.596;2023-07-20T20:58:55;3.55;;;1.20;;
52962;SDS011;38827;53.024;6.596;2023-07-20T21:01:21;2.42;;;1.38;;
52962;SDS011;38827;53.024;6.596;2023-07-20T21:03:48;3.35;;;1.25;;
52962;SDS011;38827;53.024;6.596;2023-07-20T21:06:13;3.78;;;1.20;;
52962;SDS011;38827;53.024;6.596;2023-07-20T21:08:39;3.90;;;1.77;;
52962;SDS011;38827;53.024;6.596;2023-07-20T21:11:06;2.47;;;1.50;;
52962;SDS011;38827;53.024;6.596;2023-07-20T21:13:33;4.13;;;1.42;;
52962;SDS011;38827;53.024;6.596;2023-07-20T21:15:58;4.07;;;1.60;;
52962;SDS011;38827;53.024;6.596;2023-07-20T21:18:24;4.35;;;1.75;;
52962;SDS011;38827;53.024;6.596;2023-07-20T21:20:56;1.83;;;1.40;;
52962;SDS011;38827;53.024;6.596;2023-07-20T21:23:21;4.60;;;1.63;;
52962;SDS011;38827;53.024;6.596;2023-07-20T21:25:47;3.67;;;1.60;;
52962;SDS011;38827;53.024;6.596;2023-07-20T21:28:13;3.53;;;1.60;;
52962;SDS011;38827;53.024;6.596;2023-07-20T21:30:40;3.17;;;1.40;;
52962;SDS011;38827;53.024;6.596;2023-07-20T21:33:08;3.38;;;1.40;;
52962;SDS011;38827;53.024;6.596;2023-07-20T21:35:41;3.22;;;1.67;;
52962;SDS011;38827;53.024;6.596;2023-07-20T21:38:08;4.72;;;1.67;;
52962;SDS011;38827;53.024;6.596;2023-07-20T21:40:37;3.75;;;1.60;;
52962;SDS011;38827;53.024;6.596;2023-07-20T21:43:03;3.67;;;1.40;;
52962;SDS011;38827;53.024;6.596;2023-07-20T21:45:29;3.75;;;1.70;;
52962;SDS011;38827;53.024;6.596;2023-07-20T21:47:54;2.00;;;1.17;;
52962;SDS011;38827;53.024;6.596;2023-07-20T21:50:20;2.28;;;1.60;;
52962;SDS011;38827;53.024;6.596;2023-07-20T21:52:46;3.92;;;1.70;;
52962;SDS011;38827;53.024;6.596;2023-07-20T21:55:12;3.80;;;1.40;;
52962;SDS011;38827;53.024;6.596;2023-07-20T21:57:37;2.95;;;1.50;;
52962;SDS011;38827;53.024;6.596;2023-07-20T22:00:04;2.92;;;1.67;;
52962;SDS011;38827;53.024;6.596;2023-07-20T22:02:31;2.45;;;1.50;;
52962;SDS011;38827;53.024;6.596;2023-07-20T22:04:57;3.78;;;1.50;;
52962;SDS011;38827;53.024;6.596;2023-07-20T22:07:23;4.63;;;1.50;;
52962;SDS011;38827;53.024;6.596;2023-07-20T22:09:52;6.03;;;1.60;;
52962;SDS011;38827;53.024;6.596;2023-07-20T22:12:17;3.95;;;1.73;;
52962;SDS011;38827;53.024;6.596;2023-07-20T22:14:43;5.13;;;1.70;;
52962;SDS011;38827;53.024;6.596;2023-07-20T22:17:09;6.25;;;1.80;;
52962;SDS011;38827;53.024;6.596;2023-07-20T22:19:39;2.95;;;1.73;;
52962;SDS011;38827;53.024;6.596;2023-07-20T22:22:05;3.50;;;1.57;;
52962;SDS011;38827;53.024;6.596;2023-07-20T22:24:32;4.75;;;1.83;;
52962;SDS011;38827;53.024;6.596;2023-07-20T22:26:57;3.05;;;1.70;;
52962;SDS011;38827;53.024;6.596;2023-07-20T22:29:23;6.82;;;1.80;;
52962;SDS011;38827;53.024;6.596;2023-07-20T22:31:50;3.13;;;1.60;;
52962;SDS011;38827;53.024;6.596;2023-07-20T22:34:16;3.17;;;1.85;;
52962;SDS011;38827;53.024;6.596;2023-07-20T22:36:42;4.05;;;1.70;;
52962;SDS011;38827;53.024;6.596;2023-07-20T22:39:08;3.38;;;1.52;;
52962;SDS011;38827;53.024;6.596;2023-07-20T22:41:34;3.97;;;1.40;;
52962;SDS011;38827;53.024;6.596;2023-07-20T22:44:00;3.47;;;1.60;;
52962;SDS011;38827;53.024;6.596;2023-07-20T22:46:26;4.22;;;1.80;;
52962;SDS011;38827;53.024;6.596;2023-07-20T22:48:51;2.40;;;1.70;;
52962;SDS011;38827;53.024;6.596;2023-07-20T22:51:20;5.20;;;1.60;;
52962;SDS011;38827;53.024;6.596;2023-07-20T22:53:45;4.43;;;1.52;;
52962;SDS011;38827;53.024;6.596;2023-07-20T22:56:11;2.45;;;1.42;;
52962;SDS011;38827;53.024;6.596;2023-07-20T22:58:37;2.58;;;1.73;;
52962;SDS011;38827;53.024;6.596;2023-07-20T23:01:07;5.60;;;1.80;;
52962;SDS011;38827;53.024;6.596;2023-07-20T23:03:35;2.67;;;1.70;;
52962;SDS011;38827;53.024;6.596;2023-07-20T23:06:01;4.40;;;1.80;;
52962;SDS011;38827;53.024;6.596;2023-07-20T23:08:30;4.55;;;1.67;;
52962;SDS011;38827;53.024;6.596;2023-07-20T23:10:56;5.53;;;1.70;;
52962;SDS011;38827;53.024;6.596;2023-07-20T23:13:23;3.67;;;1.88;;
52962;SDS011;38827;53.024;6.596;2023-07-20T23:21:48;2.78;;;1.80;;
52962;SDS011;38827;53.024;6.596;2023-07-20T23:24:24;2.92;;;1.80;;
52962;SDS011;38827;53.024;6.596;2023-07-20T23:27:25;3.67;;;1.80;;
52962;SDS011;38827;53.024;6.596;2023-07-20T23:29:50;2.47;;;1.55;;
52962;SDS011;38827;53.024;6.596;2023-07-20T23:32:45;3.47;;;2.00;;
52962;SDS011;38827;53.024;6.596;2023-07-20T23:35:12;3.15;;;1.90;;
52962;SDS011;38827;53.024;6.596;2023-07-20T23:37:39;3.28;;;1.83;;
52962;SDS011;38827;53.024;6.596;2023-07-20T23:40:05;3.90;;;2.00;;
52962;SDS011;38827;53.024;6.596;2023-07-20T23:48:31;3.65;;;1.85;;
52962;SDS011;38827;53.024;6.596;2023-07-20T23:51:09;3.67;;;1.90;;
52962;SDS011;38827;53.024;6.596;2023-07-20T23:53:40;5.47;;;2.17;;
52962;SDS011;38827;53.024;6.596;2023-07-20T23:56:06;4.05;;;2.00;;
52962;SDS011;38827;53.024;6.596;2023-07-20T23:58:32;4.60;;;2.10;;
